createdAt,value
2023-01-25T00:00:29.690Z,22.18
2023-01-25T00:02:56.515Z,22.21
2023-01-25T00:05:23.373Z,22.20
2023-01-25T00:07:52.252Z,22.21
2023-01-25T00:10:19.358Z,22.22
2023-01-25T00:12:46.497Z,22.18
2023-01-25T00:15:13.298Z,22.15
2023-01-25T00:17:42.736Z,22.14
2023-01-25T00:20:11.994Z,22.09
2023-01-25T00:22:39.816Z,22.08
2023-01-25T00:25:07.414Z,22.07
2023-01-25T00:27:34.767Z,22.03
2023-01-25T00:30:02.669Z,22.00
2023-01-25T00:32:34.761Z,21.97
2023-01-25T00:35:01.624Z,21.95
2023-01-25T00:37:43.453Z,21.93
2023-01-25T00:40:12.080Z,21.88
2023-01-25T00:42:39.571Z,21.85
2023-01-25T00:45:07.127Z,21.82
2023-01-25T00:47:34.089Z,21.78
2023-01-25T00:50:00.846Z,21.73
2023-01-25T00:52:28.815Z,21.71
2023-01-25T00:54:55.770Z,21.69
2023-01-25T00:57:22.831Z,21.67
2023-01-25T00:59:49.653Z,21.67
2023-01-25T01:02:16.418Z,21.67
2023-01-25T01:04:45.254Z,21.68
2023-01-25T01:07:15.383Z,21.65
2023-01-25T01:09:42.396Z,21.65
2023-01-25T01:12:10.496Z,21.64
2023-01-25T01:14:37.289Z,21.59
2023-01-25T01:17:05.152Z,21.56
2023-01-25T01:19:32.108Z,21.53
2023-01-25T01:21:58.811Z,21.50
2023-01-25T01:24:25.883Z,21.48
2023-01-25T01:26:54.041Z,21.44
2023-01-25T01:29:20.728Z,21.41
2023-01-25T01:31:50.136Z,21.38
2023-01-25T01:34:19.163Z,21.32
2023-01-25T01:36:46.340Z,21.31
2023-01-25T01:39:13.375Z,21.28
2023-01-25T01:41:41.388Z,21.22
2023-01-25T01:44:15.293Z,21.17
2023-01-25T01:46:42.003Z,21.14
2023-01-25T01:49:11.877Z,21.09
2023-01-25T01:51:39.093Z,21.08
2023-01-25T01:54:09.062Z,21.06
2023-01-25T01:56:41.133Z,21.04
2023-01-25T01:59:08.891Z,20.97
2023-01-25T02:01:35.833Z,20.96
2023-01-25T02:04:03.958Z,20.92
2023-01-25T02:06:34.002Z,20.88
2023-01-25T02:09:02.922Z,20.83
2023-01-25T02:11:31.207Z,20.81
2023-01-25T02:14:01.095Z,20.75
2023-01-25T02:16:29.117Z,20.68
2023-01-25T02:18:58.234Z,20.65
2023-01-25T02:21:25.324Z,20.61
2023-01-25T02:23:57.398Z,20.56
2023-01-25T02:26:24.797Z,20.55
2023-01-25T02:28:54.792Z,20.54
2023-01-25T02:31:21.742Z,20.50
2023-01-25T02:33:49.618Z,20.48
2023-01-25T02:36:20.063Z,20.45
2023-01-25T02:38:50.408Z,20.40
2023-01-25T02:41:24.758Z,20.37
2023-01-25T02:43:54.802Z,20.33
2023-01-25T02:46:26.296Z,20.31
2023-01-25T02:48:55.161Z,20.30
2023-01-25T02:51:22.897Z,20.26
2023-01-25T02:53:49.864Z,20.22
2023-01-25T02:56:17.133Z,20.21
2023-01-25T02:58:44.152Z,20.18
2023-01-25T03:01:11.802Z,20.16
2023-01-25T03:03:38.578Z,20.14
2023-01-25T03:06:05.650Z,20.08
2023-01-25T03:08:33.397Z,20.03
2023-01-25T03:11:02.286Z,20.04
2023-01-25T03:13:29.759Z,19.98
2023-01-25T03:15:59.730Z,19.95
2023-01-25T03:18:27.151Z,19.93
2023-01-25T03:20:54.597Z,19.91
2023-01-25T03:23:21.844Z,19.88
2023-01-25T03:25:50.979Z,19.84
2023-01-25T03:28:17.892Z,19.83
2023-01-25T03:30:44.714Z,19.79
2023-01-25T03:33:11.488Z,19.75
2023-01-25T03:35:38.496Z,19.71
2023-01-25T03:38:05.197Z,19.70
2023-01-25T03:40:32.224Z,19.65
2023-01-25T03:42:59.275Z,19.60
2023-01-25T03:45:26.473Z,19.56
2023-01-25T03:47:53.280Z,19.53
2023-01-25T03:50:20.291Z,19.56
2023-01-25T03:52:49.283Z,19.46
2023-01-25T03:55:16.248Z,19.44
2023-01-25T03:57:43.285Z,19.42
2023-01-25T04:00:13.136Z,19.39
2023-01-25T04:02:39.964Z,19.38
2023-01-25T04:05:07.627Z,19.39
2023-01-25T04:07:34.729Z,19.36
2023-01-25T04:10:01.550Z,19.32
2023-01-25T04:12:28.250Z,19.27
2023-01-25T04:14:55.178Z,19.30
2023-01-25T04:17:22.981Z,19.23
2023-01-25T04:19:52.415Z,19.20
2023-01-25T04:22:20.502Z,19.22
2023-01-25T04:24:47.870Z,19.18
2023-01-25T04:27:14.615Z,19.17
2023-01-25T04:29:42.195Z,19.11
2023-01-25T04:32:10.171Z,19.06
2023-01-25T04:34:38.087Z,19.08
2023-01-25T04:37:04.814Z,19.06
2023-01-25T04:39:31.932Z,19.03
2023-01-25T04:41:59.034Z,19.00
2023-01-25T04:44:26.924Z,19.06
2023-01-25T04:46:53.824Z,18.99
2023-01-25T04:49:20.884Z,18.95
2023-01-25T04:51:47.595Z,18.87
2023-01-25T04:54:14.412Z,18.89
2023-01-25T04:56:41.153Z,18.85
2023-01-25T04:59:08.247Z,18.82
2023-01-25T05:01:35.308Z,18.80
2023-01-25T05:04:02.567Z,18.79
2023-01-25T05:06:29.450Z,18.81
2023-01-25T05:08:56.364Z,18.72
2023-01-25T05:11:24.643Z,18.72
2023-01-25T05:13:52.240Z,18.74
2023-01-25T05:16:20.091Z,18.70
2023-01-25T05:18:49.400Z,18.73
2023-01-25T05:21:19.853Z,18.68
2023-01-25T05:23:47.750Z,18.74
2023-01-25T05:26:17.748Z,18.80
2023-01-25T05:28:44.485Z,18.83
2023-01-25T05:31:11.244Z,18.83
2023-01-25T05:33:38.018Z,18.87
2023-01-25T05:36:05.358Z,18.92
2023-01-25T05:38:32.374Z,18.96
2023-01-25T05:41:01.815Z,19.02
2023-01-25T05:43:28.599Z,19.06
2023-01-25T05:45:55.977Z,19.10
2023-01-25T05:48:25.191Z,19.14
2023-01-25T05:50:51.941Z,19.18
2023-01-25T05:53:18.608Z,19.23
2023-01-25T05:55:45.829Z,19.27
2023-01-25T05:58:12.564Z,19.34
2023-01-25T06:00:39.532Z,19.37
2023-01-25T06:03:06.644Z,19.42
2023-01-25T06:05:34.490Z,19.46
2023-01-25T06:08:01.277Z,19.51
2023-01-25T06:10:28.442Z,19.56
2023-01-25T06:12:58.343Z,19.59
2023-01-25T06:15:25.223Z,19.64
2023-01-25T06:17:55.603Z,19.69
2023-01-25T06:20:22.400Z,19.73
2023-01-25T06:22:50.797Z,19.77
2023-01-25T06:25:18.253Z,19.81
2023-01-25T06:27:44.935Z,19.86
2023-01-25T06:30:11.898Z,19.90
2023-01-25T06:32:39.122Z,19.96
2023-01-25T06:35:07.592Z,19.99
2023-01-25T06:37:34.930Z,20.04
2023-01-25T06:40:01.855Z,20.09
2023-01-25T06:42:28.547Z,20.12
2023-01-25T06:44:55.617Z,20.16
2023-01-25T06:47:22.415Z,20.21
2023-01-25T06:49:49.298Z,20.23
2023-01-25T06:52:16.271Z,20.27
2023-01-25T06:54:43.179Z,20.33
2023-01-25T06:57:12.188Z,20.35
2023-01-25T06:59:38.947Z,20.39
2023-01-25T07:02:06.806Z,20.42
2023-01-25T07:04:34.228Z,20.46
2023-01-25T07:07:01.232Z,20.49
2023-01-25T07:09:28.975Z,20.53
2023-01-25T07:11:55.799Z,20.57
2023-01-25T07:14:23.698Z,20.59
2023-01-25T07:16:50.494Z,20.63
2023-01-25T07:19:19.074Z,20.68
2023-01-25T07:21:46.973Z,20.72
2023-01-25T07:24:14.944Z,20.73
2023-01-25T07:26:41.856Z,20.74
2023-01-25T07:29:10.632Z,20.77
2023-01-25T07:31:38.446Z,20.78
2023-01-25T07:34:13.411Z,20.80
2023-01-25T07:36:41.308Z,20.83
2023-01-25T07:39:10.825Z,20.80
2023-01-25T07:41:38.022Z,20.15
2023-01-25T07:44:05.408Z,20.42
2023-01-25T07:46:32.673Z,20.47
2023-01-25T07:48:59.799Z,20.52
2023-01-25T07:51:28.856Z,20.52
2023-01-25T07:53:59.000Z,20.54
2023-01-25T07:56:27.465Z,20.55
2023-01-25T07:58:55.481Z,20.55
2023-01-25T08:01:23.727Z,20.54
2023-01-25T08:03:52.109Z,20.54
2023-01-25T08:06:28.668Z,20.49
2023-01-25T08:08:57.333Z,20.47
2023-01-25T08:11:27.262Z,20.44
2023-01-25T08:13:55.179Z,20.42
2023-01-25T08:16:23.328Z,20.45
2023-01-25T08:18:51.209Z,20.41
2023-01-25T08:21:18.842Z,20.40
2023-01-25T08:23:45.805Z,20.37
2023-01-25T08:26:14.281Z,20.39
2023-01-25T08:28:41.988Z,20.45
2023-01-25T08:31:11.229Z,20.44
2023-01-25T08:33:39.295Z,20.35
2023-01-25T08:36:10.451Z,20.32
2023-01-25T08:38:42.870Z,20.30
2023-01-25T08:41:12.132Z,20.25
2023-01-25T08:43:40.373Z,20.23
2023-01-25T08:46:07.516Z,20.20
2023-01-25T08:48:34.670Z,20.15
2023-01-25T08:51:01.988Z,20.12
2023-01-25T08:53:30.143Z,20.08
2023-01-25T08:55:57.667Z,20.05
2023-01-25T08:58:25.418Z,20.02
2023-01-25T09:00:52.502Z,19.98
2023-01-25T09:03:19.572Z,19.93
2023-01-25T09:05:46.973Z,19.89
2023-01-25T09:08:13.979Z,19.86
2023-01-25T09:10:41.442Z,19.82
2023-01-25T09:13:09.663Z,19.80
2023-01-25T09:15:36.780Z,19.75
2023-01-25T09:18:04.144Z,19.74
2023-01-25T09:20:34.238Z,19.72
2023-01-25T09:23:02.000Z,19.67
2023-01-25T09:25:33.734Z,19.64
2023-01-25T09:28:01.372Z,19.56
2023-01-25T09:30:44.832Z,19.54
2023-01-25T09:33:15.811Z,19.51
2023-01-25T09:35:48.017Z,19.47
2023-01-25T09:38:14.890Z,19.43
2023-01-25T09:40:47.228Z,19.40
2023-01-25T09:43:32.993Z,19.37
2023-01-25T09:46:02.008Z,19.35
2023-01-25T09:48:34.553Z,19.30
2023-01-25T09:51:02.983Z,19.26
2023-01-25T09:53:31.579Z,19.25
2023-01-25T09:56:00.832Z,19.20
2023-01-25T09:58:34.695Z,19.15
2023-01-25T10:01:13.945Z,19.16
2023-01-25T10:03:44.614Z,19.08
2023-01-25T10:06:14.488Z,19.08
2023-01-25T10:08:44.356Z,19.04
2023-01-25T10:11:17.893Z,18.97
2023-01-25T10:13:47.098Z,18.93
2023-01-25T10:16:25.606Z,18.92
2023-01-25T10:18:56.518Z,18.86
2023-01-25T10:21:27.504Z,18.82
2023-01-25T10:23:57.512Z,18.78
2023-01-25T10:26:25.053Z,18.76
2023-01-25T10:28:52.213Z,18.74
2023-01-25T10:31:20.995Z,18.70
2023-01-25T10:33:50.172Z,18.67
2023-01-25T10:36:20.299Z,18.62
2023-01-25T10:38:49.506Z,18.59
2023-01-25T10:41:17.141Z,18.56
2023-01-25T10:43:44.410Z,18.55
2023-01-25T10:46:14.537Z,18.50
2023-01-25T10:48:41.911Z,18.49
2023-01-25T10:51:09.222Z,18.48
2023-01-25T10:53:37.887Z,18.43
2023-01-25T10:56:09.238Z,18.40
2023-01-25T10:58:37.722Z,18.38
2023-01-25T11:01:07.497Z,18.36
2023-01-25T11:03:36.620Z,18.32
2023-01-25T11:06:04.522Z,18.30
2023-01-25T11:08:31.969Z,18.26
2023-01-25T11:10:59.549Z,18.22
2023-01-25T11:13:30.474Z,18.20
2023-01-25T11:16:02.007Z,18.16
2023-01-25T11:18:34.202Z,18.15
2023-01-25T11:21:04.498Z,18.14
2023-01-25T11:23:32.562Z,18.12
2023-01-25T11:26:03.817Z,18.09
2023-01-25T11:28:30.632Z,18.04
2023-01-25T11:30:57.783Z,18.01
2023-01-25T11:33:26.728Z,17.99
2023-01-25T11:35:55.092Z,18.00
2023-01-25T11:38:23.891Z,17.99
2023-01-25T11:40:54.287Z,17.91
2023-01-25T11:43:24.482Z,17.91
2023-01-25T11:45:52.369Z,17.85
2023-01-25T11:48:22.185Z,17.87
2023-01-25T11:50:54.669Z,17.88
2023-01-25T11:53:22.161Z,17.84
2023-01-25T11:55:49.374Z,17.84
2023-01-25T11:58:26.558Z,17.80
2023-01-25T12:00:54.915Z,17.80
2023-01-25T12:03:26.693Z,17.79
2023-01-25T12:05:56.886Z,17.76
2023-01-25T12:08:32.905Z,17.72
2023-01-25T12:11:03.842Z,17.72
2023-01-25T12:13:31.493Z,17.70
2023-01-25T12:15:59.986Z,17.75
2023-01-25T12:18:30.215Z,17.83
2023-01-25T12:20:58.054Z,17.86
2023-01-25T12:23:29.183Z,17.89
2023-01-25T12:26:00.308Z,17.93
2023-01-25T12:28:33.447Z,17.97
2023-01-25T12:31:05.455Z,18.00
2023-01-25T12:33:34.665Z,18.06
2023-01-25T12:36:05.689Z,18.09
2023-01-25T12:38:32.989Z,18.14
2023-01-25T12:41:02.772Z,18.18
2023-01-25T12:43:34.287Z,18.23
2023-01-25T12:46:04.423Z,18.27
2023-01-25T12:48:36.699Z,18.32
2023-01-25T12:51:04.146Z,18.36
2023-01-25T12:53:36.323Z,18.40
2023-01-25T12:56:06.608Z,18.45
2023-01-25T12:58:39.872Z,18.49
2023-01-25T13:01:09.955Z,18.54
2023-01-25T13:03:42.367Z,18.58
2023-01-25T13:06:13.078Z,18.63
2023-01-25T13:08:43.957Z,18.67
2023-01-25T13:11:14.152Z,18.71
2023-01-25T13:13:43.737Z,18.76
2023-01-25T13:16:14.404Z,18.80
2023-01-25T13:18:41.743Z,18.84
2023-01-25T13:21:12.041Z,18.88
2023-01-25T13:23:44.166Z,18.90
2023-01-25T13:26:14.368Z,18.94
2023-01-25T13:28:42.882Z,18.99
2023-01-25T13:31:10.313Z,19.00
2023-01-25T13:33:39.894Z,19.01
2023-01-25T13:36:12.706Z,19.02
2023-01-25T13:38:40.143Z,19.04
2023-01-25T13:41:12.554Z,19.03
2023-01-25T13:43:41.507Z,19.05
2023-01-25T13:46:10.677Z,19.05
2023-01-25T13:48:46.053Z,19.06
2023-01-25T13:51:15.098Z,19.07
2023-01-25T13:53:43.904Z,19.07
2023-01-25T13:56:25.183Z,19.05
2023-01-25T13:58:52.403Z,19.03
2023-01-25T14:01:21.151Z,19.04
2023-01-25T14:03:50.612Z,19.01
2023-01-25T14:06:19.723Z,19.02
2023-01-25T14:08:47.726Z,19.02
2023-01-25T14:11:20.430Z,19.01
2023-01-25T14:13:50.640Z,19.00
2023-01-25T14:16:18.774Z,19.00
2023-01-25T14:18:47.421Z,18.97
2023-01-25T14:21:17.733Z,18.98
2023-01-25T14:23:45.403Z,18.98
2023-01-25T14:26:16.653Z,18.96
2023-01-25T14:28:59.047Z,18.93
2023-01-25T14:31:32.065Z,18.92
2023-01-25T14:33:59.525Z,18.89
2023-01-25T14:36:28.415Z,18.87
2023-01-25T14:38:58.464Z,18.87
2023-01-25T14:41:33.138Z,18.83
2023-01-25T14:44:03.539Z,18.80
2023-01-25T14:46:31.937Z,18.78
2023-01-25T14:49:02.054Z,18.77
2023-01-25T14:51:32.395Z,18.74
2023-01-25T14:54:07.286Z,18.69
2023-01-25T14:56:44.034Z,18.71
2023-01-25T14:59:14.340Z,18.63
2023-01-25T15:01:41.797Z,18.63
2023-01-25T15:04:12.040Z,18.64
2023-01-25T15:06:42.909Z,18.60
2023-01-25T15:09:30.095Z,18.61
2023-01-25T15:12:00.069Z,18.62
2023-01-25T15:14:28.438Z,18.64
2023-01-25T15:16:56.622Z,18.64
2023-01-25T15:19:25.264Z,18.66
2023-01-25T15:21:54.897Z,18.71
2023-01-25T15:24:22.684Z,18.76
2023-01-25T15:26:51.125Z,18.79
2023-01-25T15:29:21.715Z,18.85
2023-01-25T15:31:50.427Z,18.87
2023-01-25T15:34:19.535Z,18.90
2023-01-25T15:36:47.353Z,18.95
2023-01-25T15:39:15.924Z,18.98
2023-01-25T15:41:43.375Z,19.00
2023-01-25T15:44:11.378Z,19.04
2023-01-25T15:46:40.224Z,19.08
2023-01-25T15:49:07.748Z,19.12
2023-01-25T15:51:36.262Z,19.14
2023-01-25T15:54:04.347Z,19.18
2023-01-25T15:56:32.925Z,19.21
2023-01-25T15:59:03.160Z,19.24
2023-01-25T16:01:31.151Z,19.26
2023-01-25T16:03:59.362Z,19.30
2023-01-25T16:06:30.029Z,19.34
2023-01-25T16:08:59.134Z,19.37
2023-01-25T16:11:26.741Z,19.39
2023-01-25T16:13:54.918Z,19.43
2023-01-25T16:16:23.684Z,19.45
2023-01-25T16:18:52.030Z,19.47
2023-01-25T16:21:19.419Z,19.49
2023-01-25T16:23:46.660Z,19.50
2023-01-25T16:26:17.473Z,19.52
2023-01-25T16:28:44.834Z,19.52
2023-01-25T16:31:30.259Z,19.54
2023-01-25T16:34:00.041Z,19.54
2023-01-25T16:36:27.393Z,19.53
2023-01-25T16:38:55.059Z,19.55
2023-01-25T16:41:22.638Z,19.54
2023-01-25T16:43:50.897Z,19.53
2023-01-25T16:46:19.710Z,19.51
2023-01-25T16:48:48.123Z,19.51
2023-01-25T16:51:17.939Z,19.52
2023-01-25T16:53:45.874Z,19.50
2023-01-25T16:56:18.713Z,19.49
2023-01-25T16:58:46.964Z,19.46
2023-01-25T17:01:16.108Z,19.43
2023-01-25T17:03:44.340Z,19.41
2023-01-25T17:06:15.002Z,19.40
2023-01-25T17:08:42.100Z,19.37
2023-01-25T17:11:09.053Z,19.37
2023-01-25T17:13:39.077Z,19.37
2023-01-25T17:16:06.955Z,19.33
2023-01-25T17:18:34.598Z,19.33
2023-01-25T17:21:04.976Z,19.31
2023-01-25T17:23:33.641Z,19.32
2023-01-25T17:26:04.140Z,19.27
2023-01-25T17:28:31.535Z,19.26
2023-01-25T17:30:59.665Z,19.24
2023-01-25T17:33:28.466Z,19.23
2023-01-25T17:35:59.244Z,19.23
2023-01-25T17:38:26.573Z,19.25
2023-01-25T17:40:55.124Z,19.26
2023-01-25T17:43:22.689Z,19.30
2023-01-25T17:45:50.322Z,19.34
2023-01-25T17:48:17.795Z,19.37
2023-01-25T17:50:45.214Z,19.40
2023-01-25T17:53:12.690Z,19.43
2023-01-25T17:55:40.042Z,19.45
2023-01-25T17:58:07.549Z,19.49
2023-01-25T18:00:35.377Z,19.53
2023-01-25T18:03:02.910Z,19.55
2023-01-25T18:05:30.089Z,19.59
2023-01-25T18:07:57.464Z,19.59
2023-01-25T18:10:25.180Z,19.64
2023-01-25T18:13:04.121Z,19.65
2023-01-25T18:15:32.711Z,19.68
2023-01-25T18:18:00.502Z,19.70
2023-01-25T18:20:28.702Z,19.73
2023-01-25T18:22:57.143Z,19.76
2023-01-25T18:25:28.175Z,19.77
2023-01-25T18:27:55.378Z,19.80
2023-01-25T18:30:26.165Z,19.83
2023-01-25T18:32:54.190Z,19.86
2023-01-25T18:35:22.368Z,19.89
2023-01-25T18:37:49.619Z,19.90
2023-01-25T18:40:19.458Z,19.92
2023-01-25T18:42:46.999Z,19.94
2023-01-25T18:45:16.490Z,19.97
2023-01-25T18:47:43.687Z,19.97
2023-01-25T18:50:14.521Z,19.98
2023-01-25T18:52:42.043Z,19.99
2023-01-25T18:55:09.390Z,19.97
2023-01-25T18:57:36.924Z,20.00
2023-01-25T19:00:05.274Z,20.00
2023-01-25T19:02:32.740Z,20.02
2023-01-25T19:05:01.530Z,20.01
2023-01-25T19:07:28.421Z,20.01
2023-01-25T19:09:55.424Z,20.02
2023-01-25T19:12:22.509Z,20.02
2023-01-25T19:14:58.890Z,20.03
2023-01-25T19:17:26.101Z,20.02
2023-01-25T19:19:54.004Z,20.01
2023-01-25T19:22:20.816Z,19.99
2023-01-25T19:24:50.995Z,19.99
2023-01-25T19:27:18.099Z,19.99
2023-01-25T19:29:45.970Z,19.98
2023-01-25T19:32:12.875Z,19.98
2023-01-25T19:34:39.868Z,19.95
2023-01-25T19:37:07.147Z,19.94
2023-01-25T19:39:34.205Z,19.95
2023-01-25T19:42:01.122Z,19.97
2023-01-25T19:44:28.303Z,19.96
2023-01-25T19:46:55.327Z,19.92
2023-01-25T19:49:22.863Z,19.90
2023-01-25T19:51:53.479Z,19.85
2023-01-25T19:54:22.454Z,19.84
2023-01-25T19:56:50.264Z,19.81
2023-01-25T19:59:18.869Z,19.76
2023-01-25T20:01:46.516Z,19.73
2023-01-25T20:04:15.988Z,19.70
2023-01-25T20:06:43.215Z,19.69
2023-01-25T20:09:12.111Z,19.71
2023-01-25T20:11:39.872Z,19.73
2023-01-25T20:14:07.309Z,19.72
2023-01-25T20:16:36.232Z,19.74
2023-01-25T20:19:03.064Z,19.73
2023-01-25T20:21:31.256Z,19.72
2023-01-25T20:24:00.521Z,19.70
2023-01-25T20:26:28.931Z,19.67
2023-01-25T20:28:57.122Z,19.65
2023-01-25T20:31:27.156Z,19.64
2023-01-25T20:33:55.500Z,19.61
2023-01-25T20:36:23.215Z,19.57
2023-01-25T20:38:50.314Z,19.54
2023-01-25T20:41:18.722Z,19.51
2023-01-25T20:43:46.865Z,19.49
2023-01-25T20:46:13.908Z,19.48
2023-01-25T20:48:41.050Z,19.43
2023-01-25T20:51:10.980Z,19.41
2023-01-25T20:53:37.931Z,19.37
2023-01-25T20:56:06.733Z,19.34
2023-01-25T20:58:33.979Z,19.31
2023-01-25T21:01:00.812Z,19.29
2023-01-25T21:03:30.298Z,19.27
2023-01-25T21:05:58.474Z,19.25
2023-01-25T21:08:26.160Z,19.23
2023-01-25T21:10:55.310Z,19.20
2023-01-25T21:13:23.114Z,19.18
2023-01-25T21:15:53.124Z,19.17
2023-01-25T21:18:20.240Z,19.15
2023-01-25T21:20:48.206Z,19.14
2023-01-25T21:23:15.045Z,19.09
2023-01-25T21:25:42.884Z,19.04
2023-01-25T21:28:09.653Z,19.07
2023-01-25T21:30:36.399Z,19.02
2023-01-25T21:33:06.214Z,19.01
2023-01-25T21:35:33.079Z,19.00
2023-01-25T21:37:59.939Z,18.97
2023-01-25T21:40:26.781Z,18.98
2023-01-25T21:42:53.622Z,19.00
2023-01-25T21:45:23.617Z,19.01
2023-01-25T21:47:50.480Z,19.01
2023-01-25T21:50:20.855Z,19.03
2023-01-25T21:52:48.110Z,19.04
2023-01-25T21:55:17.192Z,19.07
2023-01-25T21:57:47.413Z,19.12
2023-01-25T22:00:16.280Z,19.16
2023-01-25T22:02:44.772Z,19.20
2023-01-25T22:05:14.242Z,19.23
2023-01-25T22:07:41.012Z,19.26
2023-01-25T22:10:08.114Z,19.31
2023-01-25T22:12:36.034Z,19.35
2023-01-25T22:15:02.932Z,19.39
2023-01-25T22:17:29.757Z,19.43
2023-01-25T22:19:56.691Z,19.47
2023-01-25T22:22:23.773Z,19.51
2023-01-25T22:24:50.725Z,19.57
2023-01-25T22:27:18.803Z,19.60
2023-01-25T22:29:45.598Z,19.65
2023-01-25T22:32:12.719Z,19.70
2023-01-25T22:34:40.098Z,19.73
2023-01-25T22:37:06.994Z,19.79
2023-01-25T22:39:33.723Z,19.84
2023-01-25T22:42:01.695Z,19.88
2023-01-25T22:44:28.916Z,19.92
2023-01-25T22:46:56.028Z,19.98
2023-01-25T22:49:27.871Z,20.02
2023-01-25T22:51:55.071Z,20.06
2023-01-25T22:54:21.913Z,20.10
2023-01-25T22:56:49.235Z,20.15
2023-01-25T22:59:19.271Z,20.19
2023-01-25T23:01:46.393Z,20.23
2023-01-25T23:04:15.890Z,20.27
2023-01-25T23:06:43.701Z,20.31
2023-01-25T23:09:10.886Z,20.36
2023-01-25T23:11:38.203Z,20.38
2023-01-25T23:14:09.327Z,20.44
2023-01-25T23:16:36.273Z,20.52
2023-01-25T23:19:04.022Z,20.53
2023-01-25T23:21:34.433Z,20.57
2023-01-25T23:24:02.311Z,20.61
2023-01-25T23:26:37.941Z,20.65
2023-01-25T23:29:06.420Z,20.69
2023-01-25T23:31:33.885Z,20.72
2023-01-25T23:34:02.244Z,20.75
2023-01-25T23:36:31.498Z,20.79
2023-01-25T23:38:58.717Z,20.83
2023-01-25T23:41:27.353Z,20.85
2023-01-25T23:43:55.251Z,20.90
2023-01-25T23:46:22.629Z,20.94
2023-01-25T23:48:49.427Z,20.97
2023-01-25T23:51:17.122Z,21.01
2023-01-25T23:53:44.579Z,21.04
2023-01-25T23:56:13.746Z,21.05
2023-01-25T23:58:40.521Z,21.08
